Cortland, NY (13045)

11:47 AM EDT on September 02, 2014 (GMT -0400)
Cortland County-chase Field | Change Station
CLOSE
Current Station
Airport
Location: Cortland County-chase Field,
Elevation: 1198 ft
Nearby Weather Stations

Elev 1198 ft 42.59 °N, 76.21 °W | Updated 12 minutes ago

Mostly Cloudy
Mostly Cloudy
79 °F
Feels Like 79 °F
N
7
Wind Variable Wind from WSW

Today
High -- | Low -- °F
--% Chance of Precip.
Yesterday
High -- | Low -- °F
Precip. -- in
6:30 AM 7:37 PM
First Quarter, 52% visible
Pressure 29.94 in
Visibility 10.0 miles
Clouds Scattered Clouds 2400 ft
Scattered Clouds 3000 ft
Mostly Cloudy 8000 ft
Dew Point 70 °F
Humidity 74%
Rainfall 0.00 in
Snow Depth Not available.
UV 4 out of 12
Pollen 5.60 out of 12
PM2.5 Good
Flu Activity Not available.
METAR KN03 021535Z AUTO 25006KT 10SM SCT024 SCT030 BKN080 26/21 A2994 RMK AO2

More Conditions Fewer Conditions

Pressure 29.94 in
Visibility 10.0 miles
Clouds Scattered Clouds 2400 ft
Scattered Clouds 3000 ft
Mostly Cloudy 8000 ft
Dew Point 70 °F
Humidity 74%
Rainfall 0.00 in
Snow Depth Not available.
UV 4 out of 12
Pollen 5.60 out of 12
PM2.5 Good
Flu Activity Not available.
METAR KN03 021535Z AUTO 25006KT 10SM SCT024 SCT030 BKN080 26/21 A2994 RMK AO2

More Conditions Fewer Conditions

10-Day Weather Forecast

Almanac

Astronomy

Sep. 02, 2014 Rise Set
Actual Time 6:30 AM EDT 7:37 PM EDT
Civil Twilight 6:01 AM EDT 8:06 PM EDT
Nautical Twilight 5:27 AM EDT 8:40 PM EDT
Astronomical Twilight 4:50 AM EDT 9:16 PM EDT
Moon 2:21 PM EDT No Moon Set
Length of Visible Light 14h 04m
Length of Day
13h 06m
Tomorrow will be 2m 47s shorter.
First Quarter, 52% of the Moon is Illuminated
Today
First Quarter
Sep 8
Full
Sep 15
Last Quarter
Sep 24
New
Oct 1
First Quarter

Today's Extremes

State Highs State Lows

Community

WunderPhotos

Upload Photos

1,749,705 photos uploaded!

Nearby

Air Quality

  Air Quality AQ Index Pollutant
Yesterday Good
PM2.5
Yesterday Good
OZONE
Current Good
PM2.5
Tuesday Good
PM2.5
Tuesday Good
OZONE

Snow Depth

Station Depth Elevation
No new snow has been reported.

Earthquake Activity

City Distance Mag. Time & Date
No recent earthquake activity has been reported nearby.
Minimum magnitude displayed is 2.5.

Coastal Water Temperatures

Place Temperature
No Stations Reporting

Nearby Weather Stations